createdAt,value
2023-02-12T00:00:54.537Z,99661.81
2023-02-12T00:01:56.409Z,99660.16
2023-02-12T00:02:59.148Z,99661.91
2023-02-12T00:04:01.168Z,99667.06
2023-02-12T00:05:03.968Z,99667.13
2023-02-12T00:06:06.427Z,99667.13
2023-02-12T00:07:09.753Z,99669.72
2023-02-12T00:08:12.027Z,99658.59
2023-02-12T00:09:16.113Z,99665.50
2023-02-12T00:10:18.184Z,99661.25
2023-02-12T00:11:23.138Z,99652.66
2023-02-12T00:12:25.017Z,99652.75
2023-02-12T00:13:27.808Z,99659.69
2023-02-12T00:14:29.655Z,99660.59
2023-02-12T00:15:32.442Z,99668.34
2023-02-12T00:16:34.456Z,99669.25
2023-02-12T00:17:37.561Z,99664.94
2023-02-12T00:18:39.389Z,99665.00
2023-02-12T00:19:42.595Z,99659.84
2023-02-12T00:20:44.411Z,99671.00
2023-02-12T00:21:47.158Z,99669.34
2023-02-12T00:22:49.051Z,99676.19
2023-02-12T00:23:51.848Z,99674.44
2023-02-12T00:24:55.186Z,99676.19
2023-02-12T00:25:58.150Z,99680.50
2023-02-12T00:26:59.892Z,99671.91
2023-02-12T00:28:02.792Z,99678.75
2023-02-12T00:29:04.696Z,99674.44
2023-02-12T00:30:08.631Z,99673.53
2023-02-12T00:31:12.253Z,99670.09
2023-02-12T00:32:19.366Z,99680.44
2023-02-12T00:33:21.271Z,99674.50
2023-02-12T00:34:24.010Z,99671.91
2023-02-12T00:35:25.949Z,99670.22
2023-02-12T00:36:31.378Z,99680.50
2023-02-12T00:37:33.994Z,99671.13
2023-02-12T00:38:37.415Z,99674.50
2023-02-12T00:39:39.221Z,99672.78
2023-02-12T00:40:43.365Z,99669.34
2023-02-12T00:41:45.220Z,99678.75
2023-02-12T00:42:48.390Z,99681.28
2023-02-12T00:43:50.238Z,99689.78
2023-02-12T00:44:53.006Z,99686.31
2023-02-12T00:45:55.221Z,99699.16
2023-02-12T00:46:58.303Z,99686.25
2023-02-12T00:48:00.132Z,99691.41
2023-02-12T00:49:03.252Z,99684.50
2023-02-12T00:50:06.154Z,99683.59
2023-02-12T00:51:09.833Z,99687.84
2023-02-12T00:52:11.609Z,99689.56
2023-02-12T00:53:14.432Z,99680.94
2023-02-12T00:54:16.444Z,99681.81
2023-02-12T00:55:19.462Z,99684.31
2023-02-12T00:56:22.914Z,99677.41
2023-02-12T00:57:26.023Z,99690.31
2023-02-12T00:58:28.010Z,99679.16
2023-02-12T00:59:31.418Z,99684.31
2023-02-12T01:00:33.486Z,99679.16
2023-02-12T01:01:36.353Z,99681.72
2023-02-12T01:02:38.815Z,99690.31
2023-02-12T01:03:43.460Z,99687.81
2023-02-12T01:04:45.323Z,99690.31
2023-02-12T01:05:48.341Z,99693.75
2023-02-12T01:06:50.191Z,99694.66
2023-02-12T01:07:53.655Z,99698.91
2023-02-12T01:08:55.417Z,99698.91
2023-02-12T01:09:58.457Z,99691.16
2023-02-12T01:11:02.346Z,99698.91
2023-02-12T01:12:07.305Z,99696.31
2023-02-12T01:13:10.986Z,99697.16
2023-02-12T01:14:13.767Z,99698.91
2023-02-12T01:15:15.974Z,99687.75
2023-02-12T01:16:37.605Z,99692.16
2023-02-12T01:17:39.434Z,99694.78
2023-02-12T01:18:42.266Z,99695.69
2023-02-12T01:19:44.052Z,99701.81
2023-02-12T01:20:46.946Z,99705.25
2023-02-12T01:21:48.725Z,99699.25
2023-02-12T01:22:51.709Z,99701.88
2023-02-12T01:23:53.739Z,99698.38
2023-02-12T01:24:56.460Z,99701.03
2023-02-12T01:25:59.026Z,99697.53
2023-02-12T01:27:01.837Z,99696.69
2023-02-12T01:28:05.174Z,99702.72
2023-02-12T01:29:08.657Z,99706.13
2023-02-12T01:30:12.783Z,99709.63
2023-02-12T01:31:18.594Z,99703.53
2023-02-12T01:32:20.466Z,99708.72
2023-02-12T01:33:23.356Z,99715.63
2023-02-12T01:34:25.154Z,99715.59
2023-02-12T01:35:28.594Z,99715.59
2023-02-12T01:36:31.818Z,99712.09
2023-02-12T01:37:36.846Z,99716.34
2023-02-12T01:38:38.990Z,99708.59
2023-02-12T01:39:41.938Z,99715.44
2023-02-12T01:40:43.713Z,99718.03
2023-02-12T01:41:47.012Z,99715.44
2023-02-12T01:42:49.014Z,99712.81
2023-02-12T01:44:12.210Z,99722.28
2023-02-12T01:45:46.048Z,99727.59
2023-02-12T01:46:51.051Z,99727.69
2023-02-12T01:47:53.253Z,99718.34
2023-02-12T01:48:56.557Z,99726.94
2023-02-12T01:49:58.407Z,99726.09
2023-02-12T01:51:03.776Z,99727.84
2023-02-12T01:52:08.581Z,99727.84
2023-02-12T01:53:13.257Z,99731.25
2023-02-12T01:54:18.607Z,99733.84
2023-02-12T01:55:20.702Z,99736.38
2023-02-12T01:56:24.394Z,99735.44
2023-02-12T01:57:27.356Z,99738.84
2023-02-12T01:58:32.136Z,99740.59
2023-02-12T01:59:36.741Z,99738.84
2023-02-12T02:00:40.855Z,99740.59
2023-02-12T02:01:44.582Z,99750.78
2023-02-12T02:02:50.241Z,99753.34
2023-02-12T02:03:55.731Z,99752.44
2023-02-12T02:05:00.077Z,99749.03
2023-02-12T02:06:08.529Z,99745.53
2023-02-12T02:07:12.032Z,99744.66
2023-02-12T02:08:15.198Z,99755.00
2023-02-12T02:09:19.120Z,99760.84
2023-02-12T02:10:20.962Z,99759.97
2023-02-12T02:11:43.498Z,99759.06
2023-02-12T02:13:04.258Z,99758.22
2023-02-12T02:14:25.603Z,99759.97
2023-02-12T02:15:31.644Z,99750.47
2023-02-12T02:16:35.615Z,99759.06
2023-02-12T02:17:51.156Z,99756.47
2023-02-12T02:18:56.265Z,99751.25
2023-02-12T02:20:26.731Z,99753.75
2023-02-12T02:21:50.887Z,99754.59
2023-02-12T02:23:03.617Z,99758.94
2023-02-12T02:24:17.049Z,99758.94
2023-02-12T02:25:37.533Z,99766.69
2023-02-12T02:27:07.955Z,99761.47
2023-02-12T02:28:23.900Z,99763.16
2023-02-12T02:29:54.655Z,99763.16
2023-02-12T02:31:01.006Z,99769.16
2023-02-12T02:32:06.713Z,99757.06
2023-02-12T02:33:16.309Z,99769.09
2023-02-12T02:34:21.349Z,99767.34
2023-02-12T02:35:29.282Z,99769.88
2023-02-12T02:36:36.359Z,99776.72
2023-02-12T02:37:42.468Z,99784.41
2023-02-12T02:38:48.557Z,99785.31
2023-02-12T02:39:54.929Z,99777.56
2023-02-12T02:41:02.747Z,99783.63
2023-02-12T02:42:10.464Z,99781.06
2023-02-12T02:43:16.604Z,99781.06
2023-02-12T02:44:25.396Z,99791.41
2023-02-12T02:45:30.717Z,99789.72
2023-02-12T02:46:37.602Z,99795.72
2023-02-12T02:47:43.209Z,99784.53
2023-02-12T02:48:49.353Z,99780.22
2023-02-12T02:49:55.146Z,99786.22
2023-02-12T02:51:00.960Z,99787.91
2023-02-12T02:52:06.897Z,99796.50
2023-02-12T02:53:12.335Z,99793.91
2023-02-12T02:54:16.956Z,99795.59
2023-02-12T02:55:53.507Z,99799.91
2023-02-12T02:57:00.805Z,99797.31
2023-02-12T02:58:07.686Z,99799.84
2023-02-12T02:59:12.402Z,99809.34
2023-02-12T03:00:20.070Z,99802.44
2023-02-12T03:01:23.921Z,99796.50
2023-02-12T03:02:30.615Z,99803.34
2023-02-12T03:03:34.974Z,99804.25
2023-02-12T03:04:40.578Z,99804.25
2023-02-12T03:05:44.323Z,99810.25
2023-02-12T03:06:49.546Z,99808.56
2023-02-12T03:07:53.441Z,99815.50
2023-02-12T03:08:58.219Z,99817.16
2023-02-12T03:10:02.198Z,99818.06
2023-02-12T03:11:09.253Z,99818.06
2023-02-12T03:12:14.385Z,99819.88
2023-02-12T03:13:21.690Z,99813.84
2023-02-12T03:14:26.012Z,99820.84
2023-02-12T03:15:34.326Z,99825.94
2023-02-12T03:16:39.930Z,99830.28
2023-02-12T03:17:45.630Z,99829.44
2023-02-12T03:18:51.576Z,99838.88
2023-02-12T03:19:56.968Z,99834.66
2023-02-12T03:21:01.490Z,99839.78
2023-02-12T03:22:07.299Z,99838.09
2023-02-12T03:23:13.162Z,99849.34
2023-02-12T03:24:22.179Z,99846.78
2023-02-12T03:25:26.876Z,99855.38
2023-02-12T03:26:37.590Z,99845.97
2023-02-12T03:27:42.023Z,99851.97
2023-02-12T03:28:45.164Z,99852.81
2023-02-12T03:29:47.393Z,99853.66
2023-02-12T03:30:53.767Z,99853.66
2023-02-12T03:32:00.728Z,99859.69
2023-02-12T03:33:10.521Z,99850.19
2023-02-12T03:34:18.822Z,99855.38
2023-02-12T03:35:23.585Z,99863.13
2023-02-12T03:36:34.547Z,99863.13
2023-02-12T03:37:40.293Z,99864.88
2023-02-12T03:38:45.777Z,99881.19
2023-02-12T03:39:54.676Z,99879.44
2023-02-12T03:40:59.877Z,99882.94
2023-02-12T03:42:05.644Z,99879.44
2023-02-12T03:43:30.677Z,99882.09
2023-02-12T03:44:45.406Z,99882.97
2023-02-12T03:45:51.372Z,99885.63
2023-02-12T03:47:00.990Z,99883.94
2023-02-12T03:48:09.155Z,99896.88
2023-02-12T03:49:16.500Z,99902.09
2023-02-12T03:50:22.034Z,99896.94
2023-02-12T03:51:29.713Z,99902.16
2023-02-12T03:52:31.528Z,99910.75
2023-02-12T03:53:34.329Z,99909.91
2023-02-12T03:54:37.110Z,99909.06
2023-02-12T03:55:43.737Z,99916.75
2023-02-12T03:56:52.086Z,99913.28
2023-02-12T03:58:00.746Z,99909.88
2023-02-12T03:59:03.881Z,99905.56
2023-02-12T04:00:09.742Z,99909.91
2023-02-12T04:01:17.494Z,99909.13
2023-02-12T04:02:20.596Z,99900.53
2023-02-12T04:03:24.695Z,99911.72
2023-02-12T04:04:28.182Z,99911.72
2023-02-12T04:05:30.058Z,99918.63
2023-02-12T04:06:32.818Z,99924.69
2023-02-12T04:07:35.378Z,99925.63
2023-02-12T04:08:38.114Z,99932.63
2023-02-12T04:09:40.043Z,99927.47
2023-02-12T04:10:53.836Z,99936.22
2023-02-12T04:12:06.190Z,99938.97
2023-02-12T04:13:16.979Z,99936.44
2023-02-12T04:14:25.237Z,99934.78
2023-02-12T04:15:40.161Z,99935.69
2023-02-12T04:16:46.212Z,99940.94
2023-02-12T04:17:54.881Z,99932.38
2023-02-12T04:18:58.226Z,99933.28
2023-02-12T04:20:09.512Z,99941.94
2023-02-12T04:21:17.185Z,99950.59
2023-02-12T04:22:31.140Z,99947.16
2023-02-12T04:23:42.261Z,99951.50
2023-02-12T04:24:49.108Z,99950.59
2023-02-12T04:25:56.853Z,99939.41
2023-02-12T04:27:04.989Z,99940.25
2023-02-12T04:28:13.287Z,99948.00
2023-02-12T04:29:20.488Z,99950.59
2023-02-12T04:30:25.084Z,99950.59
2023-02-12T04:31:31.831Z,99942.84
2023-02-12T04:32:38.775Z,99950.59
2023-02-12T04:33:46.017Z,99949.75
2023-02-12T04:34:58.954Z,99950.59
2023-02-12T04:36:02.482Z,99949.69
2023-02-12T04:37:07.885Z,99954.84
2023-02-12T04:38:13.298Z,99961.69
2023-02-12T04:39:20.308Z,99956.53
2023-02-12T04:40:22.584Z,99952.28
2023-02-12T04:41:26.448Z,99958.34
2023-02-12T04:42:28.266Z,99960.84
2023-02-12T04:43:36.501Z,99962.59
2023-02-12T04:44:39.974Z,99966.09
2023-02-12T04:45:42.987Z,99964.41
2023-02-12T04:46:44.810Z,99973.00
2023-02-12T04:47:47.961Z,99971.25
2023-02-12T04:48:52.547Z,99973.00
2023-02-12T04:49:55.336Z,99969.56
2023-02-12T04:50:58.537Z,99976.41
2023-02-12T04:52:01.360Z,99980.69
2023-02-12T04:53:03.109Z,99970.34
2023-02-12T04:54:06.083Z,99982.34
2023-02-12T04:55:09.290Z,99987.53
2023-02-12T04:56:11.528Z,99981.47
2023-02-12T04:57:14.347Z,99978.09
2023-02-12T04:58:16.524Z,99984.09
2023-02-12T04:59:19.268Z,99990.94
2023-02-12T05:00:21.665Z,99982.34
2023-02-12T05:01:24.699Z,99992.63
2023-02-12T05:02:26.582Z,99984.00
2023-02-12T05:03:29.385Z,99987.44
2023-02-12T05:04:31.149Z,99988.34
2023-02-12T05:05:33.965Z,99999.53
2023-02-12T05:06:38.068Z,100001.34
2023-02-12T05:07:40.827Z,100006.50
2023-02-12T05:08:42.615Z,100008.31
2023-02-12T05:09:45.444Z,100004.03
2023-02-12T05:10:47.262Z,100003.19
2023-02-12T05:11:50.234Z,100008.31
2023-02-12T05:12:52.391Z,100006.56
2023-02-12T05:13:55.463Z,100006.56
2023-02-12T05:14:57.466Z,100016.91
2023-02-12T05:16:00.912Z,100014.34
2023-02-12T05:17:02.804Z,100010.16
2023-02-12T05:18:05.936Z,100015.41
2023-02-12T05:19:09.434Z,100016.31
2023-02-12T05:20:12.984Z,100019.91
2023-02-12T05:21:14.828Z,100020.06
2023-02-12T05:22:19.074Z,100013.22
2023-02-12T05:23:20.821Z,100020.19
2023-02-12T05:24:23.566Z,100021.91
2023-02-12T05:25:25.404Z,100027.13
2023-02-12T05:26:28.151Z,100033.19
2023-02-12T05:27:29.914Z,100026.34
2023-02-12T05:28:32.850Z,100040.09
2023-02-12T05:29:34.729Z,100030.66
2023-02-12T05:30:37.532Z,100038.41
2023-02-12T05:31:39.511Z,100030.72
2023-02-12T05:32:42.346Z,100042.72
2023-02-12T05:33:44.567Z,100036.75
2023-02-12T05:34:47.387Z,100042.88
2023-02-12T05:35:49.885Z,100042.94
2023-02-12T05:36:52.729Z,100046.50
2023-02-12T05:37:55.929Z,100047.44
2023-02-12T05:38:59.756Z,100048.47
2023-02-12T05:40:01.580Z,100051.28
2023-02-12T05:41:05.779Z,100070.28
2023-02-12T05:42:07.625Z,100066.16
2023-02-12T05:43:10.390Z,100072.31
2023-02-12T05:44:13.747Z,100072.47
2023-02-12T05:45:16.614Z,100075.19
2023-02-12T05:46:19.761Z,100073.66
2023-02-12T05:47:23.079Z,100076.38
2023-02-12T05:48:24.913Z,100079.88
2023-02-12T05:49:27.779Z,100077.41
2023-02-12T05:50:29.672Z,100083.53
2023-02-12T05:51:36.301Z,100085.41
2023-02-12T05:52:38.090Z,100090.75
2023-02-12T05:53:42.925Z,100093.47
2023-02-12T05:54:44.771Z,100087.66
2023-02-12T05:55:47.597Z,100094.63
2023-02-12T05:56:50.425Z,100093.03
2023-02-12T05:57:52.344Z,100104.31
2023-02-12T05:58:56.715Z,100104.41
2023-02-12T05:59:59.489Z,100104.53
2023-02-12T06:01:01.313Z,100104.66
2023-02-12T06:02:04.918Z,100108.13
2023-02-12T06:03:06.890Z,100114.31
2023-02-12T06:04:14.892Z,100117.84
2023-02-12T06:05:16.911Z,100116.28
2023-02-12T06:06:19.988Z,100114.66
2023-02-12T06:07:22.974Z,100114.00
2023-02-12T06:08:26.150Z,100114.13
2023-02-12T06:09:30.697Z,100121.19
2023-02-12T06:10:32.455Z,100118.00
2023-02-12T06:11:35.222Z,100125.00
2023-02-12T06:12:37.995Z,100124.31
2023-02-12T06:13:40.208Z,100127.00
2023-02-12T06:14:43.249Z,100128.84
2023-02-12T06:15:45.166Z,100127.38
2023-02-12T06:16:49.628Z,100135.25
2023-02-12T06:17:51.449Z,100132.81
2023-02-12T06:18:55.567Z,100137.22
2023-02-12T06:19:58.295Z,100143.41
2023-02-12T06:21:00.073Z,100145.22
2023-02-12T06:22:21.240Z,100145.34
2023-02-12T06:23:23.912Z,100142.81
2023-02-12T06:24:27.078Z,100152.22
2023-02-12T06:25:30.740Z,100152.94
2023-02-12T06:26:33.764Z,100157.09
2023-02-12T06:27:35.570Z,100150.97
2023-02-12T06:28:38.631Z,100155.09
2023-02-12T06:29:41.490Z,100151.44
2023-02-12T06:30:43.482Z,100153.75
2023-02-12T06:31:46.563Z,100157.81
2023-02-12T06:32:49.493Z,100153.19
2023-02-12T06:33:53.208Z,100163.22
2023-02-12T06:34:55.188Z,100159.44
2023-02-12T06:35:58.179Z,100151.41
2023-02-12T06:37:00.139Z,100162.19
2023-02-12T06:38:03.186Z,100161.84
2023-02-12T06:39:05.111Z,100164.03
2023-02-12T06:40:09.256Z,100166.25
2023-02-12T06:41:12.527Z,100157.50
2023-02-12T06:42:15.413Z,100159.88
2023-02-12T06:43:17.366Z,100164.84
2023-02-12T06:44:20.167Z,100162.06
2023-02-12T06:45:22.150Z,100159.25
2023-02-12T06:46:24.920Z,100160.06
2023-02-12T06:47:27.678Z,100165.94
2023-02-12T06:48:30.872Z,100165.78
2023-02-12T06:49:33.670Z,100169.28
2023-02-12T06:50:35.577Z,100163.44
2023-02-12T06:51:40.339Z,100171.88
2023-02-12T06:52:42.188Z,100164.06
2023-02-12T06:53:45.982Z,100164.06
2023-02-12T06:54:47.795Z,100173.38
2023-02-12T06:55:50.782Z,100169.03
2023-02-12T06:56:54.385Z,100171.41
2023-02-12T06:57:57.097Z,100173.78
2023-02-12T06:59:01.046Z,100175.31
2023-02-12T07:00:03.936Z,100182.84
2023-02-12T07:01:13.324Z,100174.91
2023-02-12T07:02:16.398Z,100177.41
2023-02-12T07:03:18.204Z,100186.72
2023-02-12T07:04:21.595Z,100186.56
2023-02-12T07:05:24.558Z,100185.59
2023-02-12T07:06:28.036Z,100186.44
2023-02-12T07:07:29.907Z,100200.03
2023-02-12T07:08:32.714Z,100200.81
2023-02-12T07:09:34.595Z,100199.19
2023-02-12T07:10:37.327Z,100197.66
2023-02-12T07:11:39.269Z,100204.78
2023-02-12T07:12:43.473Z,100195.28
2023-02-12T07:13:45.611Z,100203.97
2023-02-12T07:14:48.375Z,100203.13
2023-02-12T07:15:50.338Z,100203.13
2023-02-12T07:16:55.667Z,100202.97
2023-02-12T07:17:58.722Z,100201.94
2023-02-12T07:19:01.909Z,100198.44
2023-02-12T07:20:03.839Z,100201.84
2023-02-12T07:21:07.715Z,100199.13
2023-02-12T07:22:09.646Z,100198.84
2023-02-12T07:23:12.434Z,100199.47
2023-02-12T07:24:14.855Z,100199.19
2023-02-12T07:25:36.328Z,100199.03
2023-02-12T07:26:39.811Z,100198.03
2023-02-12T07:27:43.946Z,100200.63
2023-02-12T07:28:46.124Z,100201.47
2023-02-12T07:29:48.844Z,100202.47
2023-02-12T07:30:50.936Z,100205.41
2023-02-12T07:31:53.827Z,100204.91
2023-02-12T07:32:55.838Z,100208.69
2023-02-12T07:34:00.247Z,100216.66
2023-02-12T07:35:02.123Z,100216.09
2023-02-12T07:36:07.133Z,100215.53
2023-02-12T07:37:09.913Z,100218.38
2023-02-12T07:38:12.040Z,100223.75
2023-02-12T07:39:14.902Z,100223.81
2023-02-12T07:40:16.872Z,100232.56
2023-02-12T07:41:21.508Z,100231.75
2023-02-12T07:42:23.304Z,100225.81
2023-02-12T07:43:27.980Z,100230.97
2023-02-12T07:44:31.367Z,100228.38
2023-02-12T07:45:34.181Z,100231.56
2023-02-12T07:46:38.046Z,100233.09
2023-02-12T07:47:41.172Z,100235.50
2023-02-12T07:48:43.117Z,100237.97
2023-02-12T07:49:45.847Z,100237.88
2023-02-12T07:50:47.667Z,100238.53
2023-02-12T07:51:51.074Z,100241.03
2023-02-12T07:52:52.854Z,100240.19
2023-02-12T07:53:56.054Z,100240.09
2023-02-12T07:54:57.842Z,100235.63
2023-02-12T07:56:08.553Z,100244.78
2023-02-12T07:57:11.350Z,100233.19
2023-02-12T07:58:13.168Z,100238.94
2023-02-12T07:59:19.718Z,100247.38
2023-02-12T08:00:41.051Z,100237.13
2023-02-12T08:01:44.092Z,100249.25
2023-02-12T08:02:52.670Z,100256.31
2023-02-12T08:03:56.189Z,100265.09
2023-02-12T08:04:59.719Z,100267.84
2023-02-12T08:06:07.457Z,100263.00
2023-02-12T08:07:10.299Z,100263.94
2023-02-12T08:08:12.069Z,100258.88
2023-02-12T08:09:17.296Z,100266.63
2023-02-12T08:10:22.295Z,100275.31
2023-02-12T08:11:25.398Z,100264.97
2023-02-12T08:12:28.137Z,100273.63
2023-02-12T08:13:30.220Z,100271.09
2023-02-12T08:14:34.288Z,100272.00
2023-02-12T08:15:36.086Z,100264.34
2023-02-12T08:16:40.393Z,100273.06
2023-02-12T08:17:43.506Z,100276.47
2023-02-12T08:18:46.826Z,100275.56
2023-02-12T08:19:48.743Z,100277.38
2023-02-12T08:20:51.553Z,100275.69
2023-02-12T08:21:55.400Z,100273.13
2023-02-12T08:22:58.198Z,100283.56
2023-02-12T08:24:01.255Z,100285.34
2023-02-12T08:25:04.051Z,100282.91
2023-02-12T08:26:11.103Z,100289.06
2023-02-12T08:27:13.917Z,100296.03
2023-02-12T08:28:15.723Z,100290.94
2023-02-12T08:29:38.497Z,100286.78
2023-02-12T08:30:40.639Z,100285.94
2023-02-12T08:31:44.840Z,100288.47
2023-02-12T08:32:49.256Z,100295.31
2023-02-12T08:33:53.379Z,100292.69
2023-02-12T08:34:55.358Z,100295.25
2023-02-12T08:36:03.669Z,100298.53
2023-02-12T08:37:07.481Z,100293.38
2023-02-12T08:38:09.247Z,100300.16
2023-02-12T08:39:31.760Z,100298.50
2023-02-12T08:40:33.951Z,100301.00
2023-02-12T08:41:37.238Z,100300.09
2023-02-12T08:42:39.021Z,100303.41
2023-02-12T08:43:42.502Z,100299.84
2023-02-12T08:44:45.588Z,100294.59
2023-02-12T08:45:48.421Z,100291.91
2023-02-12T08:46:52.996Z,100289.19
2023-02-12T08:47:55.243Z,100293.44
2023-02-12T08:49:00.094Z,100298.50
2023-02-12T08:50:02.933Z,100300.94
2023-02-12T08:51:06.751Z,100299.19
2023-02-12T08:52:09.512Z,100294.75
2023-02-12T08:53:11.464Z,100306.63
2023-02-12T08:54:16.791Z,100298.69
2023-02-12T08:55:19.553Z,100298.50
2023-02-12T08:56:21.602Z,100299.09
2023-02-12T08:57:24.392Z,100306.66
2023-02-12T08:58:26.313Z,100294.53
2023-02-12T08:59:29.816Z,100295.38
2023-02-12T09:00:32.968Z,100304.88
2023-02-12T09:01:38.535Z,100299.75
2023-02-12T09:02:40.503Z,100312.81
2023-02-12T09:03:43.949Z,100309.47
2023-02-12T09:04:45.704Z,100311.38
2023-02-12T09:06:08.917Z,100315.88
2023-02-12T09:07:11.645Z,100317.81
2023-02-12T09:08:13.409Z,100315.41
2023-02-12T09:09:16.597Z,100317.25
2023-02-12T09:10:18.525Z,100319.00
2023-02-12T09:11:26.721Z,100319.03
2023-02-12T09:12:29.545Z,100324.25
2023-02-12T09:13:31.366Z,100320.06
2023-02-12T09:14:34.150Z,100327.09
2023-02-12T09:15:38.348Z,100329.03
2023-02-12T09:16:41.366Z,100326.56
2023-02-12T09:17:43.690Z,100330.97
2023-02-12T09:18:46.555Z,100330.13
2023-02-12T09:19:49.544Z,100327.53
2023-02-12T09:20:51.295Z,100330.91
2023-02-12T09:21:56.788Z,100325.63
2023-02-12T09:22:59.104Z,100328.91
2023-02-12T09:24:03.442Z,100328.78
2023-02-12T09:25:06.509Z,100326.19
2023-02-12T09:26:10.811Z,100339.81
2023-02-12T09:27:13.561Z,100333.69
2023-02-12T09:28:15.531Z,100331.03
2023-02-12T09:29:18.351Z,100329.16
2023-02-12T09:30:20.281Z,100335.03
2023-02-12T09:31:26.980Z,100334.00
2023-02-12T09:32:29.460Z,100329.53
2023-02-12T09:33:32.213Z,100334.50
2023-02-12T09:34:36.018Z,100334.22
2023-02-12T09:35:38.509Z,100333.91
2023-02-12T09:36:41.236Z,100332.75
2023-02-12T09:37:44.834Z,100334.97
2023-02-12T09:38:47.665Z,100338.81
2023-02-12T09:39:51.315Z,100339.34
2023-02-12T09:41:18.763Z,100342.56
2023-02-12T09:42:39.044Z,100335.56
2023-02-12T09:43:45.524Z,100337.19
2023-02-12T09:44:51.152Z,100337.09
2023-02-12T09:45:57.796Z,100328.38
2023-02-12T09:47:03.707Z,100332.53
2023-02-12T09:48:18.104Z,100337.56
2023-02-12T09:49:39.232Z,100337.56
2023-02-12T09:50:47.185Z,100337.88
2023-02-12T09:51:51.576Z,100343.38
2023-02-12T09:52:57.210Z,100349.63
2023-02-12T09:54:03.400Z,100343.00
2023-02-12T09:55:06.643Z,100349.28
2023-02-12T09:56:18.367Z,100351.19
2023-02-12T09:57:35.730Z,100347.88
2023-02-12T09:58:43.771Z,100354.91
2023-02-12T09:59:50.043Z,100348.06
2023-02-12T10:00:53.105Z,100348.19
2023-02-12T10:01:54.914Z,100351.66
2023-02-12T10:03:04.970Z,100353.38
2023-02-12T10:04:08.781Z,100350.00
2023-02-12T10:05:16.956Z,100356.97
2023-02-12T10:06:20.485Z,100353.63
2023-02-12T10:07:34.152Z,100359.78
2023-02-12T10:08:46.921Z,100355.59
2023-02-12T10:10:06.997Z,100347.84
2023-02-12T10:11:33.957Z,100351.19
2023-02-12T10:12:41.105Z,100353.63
2023-02-12T10:13:47.470Z,100354.28
2023-02-12T10:15:14.705Z,100353.16
2023-02-12T10:16:27.670Z,100359.09
2023-02-12T10:17:37.340Z,100352.00
2023-02-12T10:18:53.665Z,100356.13
2023-02-12T10:20:17.202Z,100364.59
2023-02-12T10:21:32.329Z,100360.09
2023-02-12T10:22:56.141Z,100360.09
2023-02-12T10:24:16.464Z,100365.13
2023-02-12T10:25:25.301Z,100360.59
2023-02-12T10:26:31.205Z,100377.59
2023-02-12T10:27:39.996Z,100370.47
2023-02-12T10:28:42.525Z,100371.94
2023-02-12T10:29:47.427Z,100370.84
2023-02-12T10:30:52.336Z,100362.16
2023-02-12T10:33:03.848Z,100367.94
2023-02-12T10:34:16.651Z,100374.63
2023-02-12T10:35:20.228Z,100368.44
2023-02-12T10:36:32.455Z,100370.13
2023-02-12T10:37:37.928Z,100362.38
2023-02-12T10:38:45.246Z,100368.34
2023-02-12T10:39:52.103Z,100364.84
2023-02-12T10:40:57.961Z,100357.13
2023-02-12T10:42:04.230Z,100363.22
2023-02-12T10:43:09.089Z,100364.00
2023-02-12T10:44:12.885Z,100368.13
2023-02-12T10:45:16.561Z,100364.53
2023-02-12T10:46:19.322Z,100360.13
2023-02-12T10:47:22.569Z,100357.59
2023-02-12T10:48:28.466Z,100366.22
2023-02-12T10:49:33.763Z,100362.03
2023-02-12T10:51:04.398Z,100363.63
2023-02-12T10:52:14.332Z,100367.97
2023-02-12T10:53:20.854Z,100371.34
2023-02-12T10:54:34.380Z,100371.22
2023-02-12T10:55:36.754Z,100367.66
2023-02-12T10:56:39.595Z,100369.41
2023-02-12T10:57:42.402Z,100367.59
2023-02-12T10:58:53.382Z,100364.13
2023-02-12T10:59:58.157Z,100369.31
2023-02-12T11:01:00.400Z,100361.56
2023-02-12T11:02:04.828Z,100364.13
2023-02-12T11:03:21.203Z,100361.59
2023-02-12T11:04:27.048Z,100372.06
2023-02-12T11:05:34.798Z,100365.38
2023-02-12T11:06:38.953Z,100372.50
2023-02-12T11:07:47.902Z,100378.88
2023-02-12T11:08:50.977Z,100377.44
2023-02-12T11:09:54.738Z,100368.94
2023-02-12T11:11:04.442Z,100375.97
2023-02-12T11:12:35.692Z,100376.16
2023-02-12T11:13:41.078Z,100373.78
2023-02-12T11:14:49.098Z,100369.78
2023-02-12T11:15:52.610Z,100368.28
2023-02-12T11:16:57.615Z,100366.75
2023-02-12T11:18:03.726Z,100372.91
2023-02-12T11:19:09.777Z,100376.50
2023-02-12T11:20:24.705Z,100368.09
2023-02-12T11:21:28.961Z,100369.09
2023-02-12T11:22:30.990Z,100370.00
2023-02-12T11:23:35.397Z,100371.75
2023-02-12T11:24:37.744Z,100373.44
2023-02-12T11:25:57.349Z,100382.78
2023-02-12T11:27:24.040Z,100379.31
2023-02-12T11:28:26.228Z,100370.69
2023-02-12T11:29:29.158Z,100379.34
2023-02-12T11:30:31.610Z,100373.34
2023-02-12T11:31:36.913Z,100379.34
2023-02-12T11:32:39.139Z,100374.03
2023-02-12T11:33:42.568Z,100374.78
2023-02-12T11:34:44.351Z,100372.94
2023-02-12T11:35:51.837Z,100372.94
2023-02-12T11:36:56.283Z,100370.47
2023-02-12T11:37:59.190Z,100369.56
2023-02-12T11:39:02.047Z,100367.66
2023-02-12T11:40:04.650Z,100370.94
2023-02-12T11:41:26.157Z,100362.19
2023-02-12T11:42:31.034Z,100362.91
2023-02-12T11:43:37.285Z,100360.16
2023-02-12T11:44:41.551Z,100369.66
2023-02-12T11:45:45.453Z,100367.03
2023-02-12T11:46:49.672Z,100359.22
2023-02-12T11:47:51.800Z,100366.94
2023-02-12T11:48:55.914Z,100363.34
2023-02-12T11:50:04.938Z,100364.13
2023-02-12T11:51:10.238Z,100356.34
2023-02-12T11:52:20.451Z,100365.81
2023-02-12T11:53:25.703Z,100360.97
2023-02-12T11:54:29.687Z,100364.50
2023-02-12T11:55:34.058Z,100364.56
2023-02-12T11:56:44.213Z,100374.84
2023-02-12T11:57:48.884Z,100371.41
2023-02-12T11:58:52.984Z,100371.41
2023-02-12T11:59:56.415Z,100365.34
2023-02-12T12:01:06.301Z,100369.53
2023-02-12T12:02:18.878Z,100365.03
2023-02-12T12:03:25.208Z,100354.56
2023-02-12T12:04:29.048Z,100360.47
2023-02-12T12:05:36.850Z,100364.66
2023-02-12T12:06:42.845Z,100362.81
2023-02-12T12:07:52.262Z,100349.63
2023-02-12T12:08:57.969Z,100352.97
2023-02-12T12:10:22.288Z,100356.25
2023-02-12T12:11:28.136Z,100358.69
2023-02-12T12:12:34.931Z,100362.81
2023-02-12T12:13:41.921Z,100359.34
2023-02-12T12:15:05.594Z,100359.22
2023-02-12T12:16:29.956Z,100359.91
2023-02-12T12:17:57.314Z,100356.31
2023-02-12T12:19:21.808Z,100354.44
2023-02-12T12:20:26.867Z,100356.91
2023-02-12T12:21:34.362Z,100357.72
2023-02-12T12:22:42.655Z,100359.28
2023-02-12T12:23:50.069Z,100362.66
2023-02-12T12:24:57.502Z,100367.69
2023-02-12T12:26:02.437Z,100365.75
2023-02-12T12:27:25.087Z,100362.13
2023-02-12T12:28:30.812Z,100361.91
2023-02-12T12:29:45.814Z,100352.41
2023-02-12T12:31:04.080Z,100349.84
2023-02-12T12:32:07.479Z,100359.53
2023-02-12T12:33:16.272Z,100353.47
2023-02-12T12:34:20.601Z,100346.53
2023-02-12T12:35:27.275Z,100348.31
2023-02-12T12:37:08.820Z,100345.88
2023-02-12T12:38:20.325Z,100345.91
2023-02-12T12:39:30.200Z,100342.44